Time;durP1;ratioP1;P1;durP2;ratioP2;P2;SDS_P1;SDS_P2;PMS_P1;PMS_P2;Temp;Humidity;BMP_temperature;BMP_pressure;BME280_temperature;BME280_humidity;BME280_pressure;Samples;Min_cycle;Max_cycle;Signal;HPM_P1;HPM_P2
2023/12/23 00:01:32;;;;;;;1.25;0.60;;;28.00;94.50;;;;;;5012774;28;20528;-68
2023/12/23 00:04:00;;;;;;;1.50;0.77;;;28.20;95.70;;;;;;5014187;28;20022;-68
2023/12/23 00:06:27;;;;;;;2.20;0.88;;;28.60;94.90;;;;;;5015254;28;20134;-68
2023/12/23 00:08:54;;;;;;;2.55;1.15;;;28.30;95.10;;;;;;5012991;28;20045;-66
2023/12/23 00:11:21;;;;;;;7.07;4.18;;;28.30;94.60;;;;;;5012587;28;20030;-66
2023/12/23 00:13:48;;;;;;;13.25;8.15;;;28.90;96.30;;;;;;5014206;28;20574;-67
2023/12/23 00:16:15;;;;;;;4.03;1.60;;;29.40;94.80;;;;;;5013553;28;20057;-66
2023/12/23 00:18:42;;;;;;;7.38;3.17;;;29.80;94.80;;;;;;5012150;28;20554;-67
2023/12/23 00:21:10;;;;;;;5.00;1.75;;;30.30;94.50;;;;;;5013376;28;20682;-66
2023/12/23 00:23:37;;;;;;;5.03;3.20;;;30.40;93.60;;;;;;5009975;28;20113;-66
2023/12/23 00:26:04;;;;;;;2.22;0.93;;;30.90;92.90;;;;;;5012123;28;20029;-70
2023/12/23 00:28:31;;;;;;;2.08;0.88;;;31.30;92.40;;;;;;5013025;28;20487;-67
2023/12/23 00:30:58;;;;;;;4.28;1.00;;;31.50;92.30;;;;;;5013463;28;20391;-67
2023/12/23 00:33:25;;;;;;;1.55;0.70;;;31.50;93.00;;;;;;5011987;28;20135;-67
2023/12/23 00:35:52;;;;;;;1.38;0.90;;;31.60;92.30;;;;;;5011393;28;20181;-68
2023/12/23 00:38:19;;;;;;;2.17;0.93;;;31.80;92.60;;;;;;5011701;28;20056;-69
2023/12/23 00:40:46;;;;;;;4.20;1.20;;;32.00;91.80;;;;;;5012331;28;20490;-66
2023/12/23 00:43:13;;;;;;;3.35;1.17;;;31.70;91.00;;;;;;5011997;28;20072;-66
2023/12/23 00:45:40;;;;;;;3.25;2.17;;;31.50;91.60;;;;;;5012603;28;20029;-67
2023/12/23 00:48:08;;;;;;;3.33;0.90;;;31.80;91.90;;;;;;5011786;28;20025;-70
2023/12/23 00:50:35;;;;;;;3.20;0.93;;;31.70;90.70;;;;;;5011990;28;20120;-69
2023/12/23 00:53:02;;;;;;;3.40;1.20;;;31.50;90.50;;;;;;5011401;28;20116;-66
2023/12/23 00:55:29;;;;;;;2.55;0.80;;;31.50;91.70;;;;;;5011888;28;20493;-69
2023/12/23 00:57:56;;;;;;;3.03;0.80;;;32.00;91.80;;;;;;5011018;28;20455;-68
2023/12/23 01:00:23;;;;;;;3.10;1.30;;;32.20;90.80;;;;;;5008968;28;20088;-70
2023/12/23 01:02:50;;;;;;;2.28;0.70;;;32.40;89.90;;;;;;5011573;28;20104;-69
2023/12/23 01:05:18;;;;;;;2.42;0.90;;;32.10;90.50;;;;;;5012295;28;20025;-68
2023/12/23 01:07:45;;;;;;;4.55;1.13;;;32.30;89.30;;;;;;5012195;28;20091;-69
2023/12/23 01:10:12;;;;;;;2.08;0.85;;;32.30;90.10;;;;;;5012771;28;20072;-67
2023/12/23 01:12:40;;;;;;;2.55;0.93;;;32.50;90.00;;;;;;5011487;28;20036;-68
2023/12/23 01:15:07;;;;;;;2.45;0.90;;;32.10;88.20;;;;;;5010245;28;20496;-68
2023/12/23 01:17:34;;;;;;;3.85;0.80;;;31.30;90.20;;;;;;5012578;28;20511;-67
2023/12/23 01:20:01;;;;;;;1.63;0.90;;;31.10;90.00;;;;;;5011924;28;20403;-69
2023/12/23 01:22:28;;;;;;;4.45;2.38;;;31.20;90.30;;;;;;5011270;28;20025;-69
2023/12/23 01:24:55;;;;;;;5.13;3.13;;;31.60;90.90;;;;;;5010417;28;20515;-70
2023/12/23 01:27:23;;;;;;;2.58;0.93;;;31.80;91.70;;;;;;5011080;28;20326;-69
2023/12/23 01:29:50;;;;;;;3.28;0.93;;;32.00;90.50;;;;;;5011987;28;20081;-68
2023/12/23 01:32:17;;;;;;;2.15;0.80;;;32.00;89.00;;;;;;5012076;28;20026;-67
2023/12/23 01:34:44;;;;;;;2.20;0.90;;;31.70;89.90;;;;;;5011294;28;20150;-66
2023/12/23 01:37:14;;;;;;;4.20;1.20;;;31.80;90.40;;;;;;5010532;28;20037;-68
2023/12/23 01:39:43;;;;;;;3.90;1.02;;;31.10;89.40;;;;;;5010872;28;20033;-67
2023/12/23 01:42:10;;;;;;;3.45;1.10;;;31.60;88.30;;;;;;5011240;28;20543;-69
2023/12/23 01:44:37;;;;;;;1.80;0.70;;;31.50;89.30;;;;;;5012189;28;20022;-69
2023/12/23 01:47:05;;;;;;;2.28;0.98;;;31.40;90.80;;;;;;5010692;28;20026;-69
2023/12/23 01:49:33;;;;;;;2.38;0.90;;;31.60;90.70;;;;;;5012760;28;20044;-70
2023/12/23 01:52:01;;;;;;;4.78;1.05;;;31.70;89.80;;;;;;5012609;28;20087;-67
2023/12/23 01:54:29;;;;;;;4.78;1.10;;;32.00;89.80;;;;;;5015399;28;20033;-70
2023/12/23 01:56:57;;;;;;;3.65;1.58;;;31.80;88.60;;;;;;5015166;28;20504;-68
2023/12/23 01:59:24;;;;;;;2.88;0.90;;;31.80;89.20;;;;;;5014722;28;20392;-66
2023/12/23 02:01:52;;;;;;;2.90;0.80;;;32.00;88.60;;;;;;5014287;28;20054;-71
2023/12/23 02:04:19;;;;;;;2.22;0.90;;;31.70;90.30;;;;;;5011783;28;20060;-71
2023/12/23 02:06:46;;;;;;;2.30;0.80;;;31.00;91.10;;;;;;5014257;28;20026;-66
2023/12/23 02:09:14;;;;;;;3.55;1.00;;;30.60;91.40;;;;;;5037092;28;20096;-68
2023/12/23 02:11:58;;;;;;;2.85;1.17;;;30.20;91.10;;;;;;5013141;28;20268;-71
2023/12/23 02:14:44;;;;;;;3.05;1.80;;;30.20;92.40;;;;;;5013117;28;20485;-70
2023/12/23 02:17:11;;;;;;;3.10;1.35;;;31.00;92.60;;;;;;5013080;28;20367;-71
2023/12/23 02:19:38;;;;;;;3.38;1.23;;;32.00;91.60;;;;;;5013660;28;20738;-68
2023/12/23 02:22:05;;;;;;;5.50;1.00;;;32.40;89.70;;;;;;5013840;28;20021;-67
2023/12/23 02:24:33;;;;;;;2.75;1.00;;;32.70;88.60;;;;;;5011721;28;20435;-67
2023/12/23 02:27:07;;;;;;;2.70;1.58;;;32.70;90.10;;;;;;5011596;28;20025;-67
2023/12/23 02:29:35;;;;;;;2.58;1.30;;;32.70;89.50;;;;;;5012194;28;20105;-71
2023/12/23 02:32:03;;;;;;;3.45;1.15;;;32.80;89.90;;;;;;5014019;28;20061;-70
2023/12/23 02:34:30;;;;;;;3.28;1.58;;;32.80;88.90;;;;;;5013611;28;20045;-66
2023/12/23 02:36:57;;;;;;;2.67;1.05;;;33.00;90.60;;;;;;5013773;28;20579;-71
2023/12/23 02:39:24;;;;;;;3.65;1.20;;;33.20;90.60;;;;;;5012336;28;20164;-71
2023/12/23 02:41:51;;;;;;;2.95;1.15;;;33.90;90.10;;;;;;5013334;28;20018;-71
2023/12/23 02:44:18;;;;;;;2.17;0.80;;;34.10;90.20;;;;;;5036451;28;20388;-75
2023/12/23 02:46:45;;;;;;;4.95;1.23;;;33.60;90.70;;;;;;5013042;28;20828;-72
2023/12/23 02:49:13;;;;;;;1.58;0.75;;;33.80;90.80;;;;;;5014026;28;20037;-72
2023/12/23 02:51:40;;;;;;;3.25;1.33;;;33.90;90.10;;;;;;5013246;28;20022;-71
2023/12/23 02:54:07;;;;;;;3.53;1.15;;;34.20;90.30;;;;;;5013807;28;20022;-71
2023/12/23 02:56:34;;;;;;;2.42;1.25;;;34.50;89.60;;;;;;5012952;28;20034;-72
2023/12/23 02:59:01;;;;;;;2.47;1.23;;;34.20;90.70;;;;;;5012661;28;20025;-67
2023/12/23 03:01:28;;;;;;;1.92;1.08;;;33.30;90.20;;;;;;5012362;28;20523;-72
2023/12/23 03:03:55;;;;;;;3.85;1.70;;;32.70;90.20;;;;;;5013830;28;20376;-66
2023/12/23 03:06:22;;;;;;;2.92;1.00;;;31.30;91.10;;;;;;5013955;28;20026;-71
2023/12/23 03:08:49;;;;;;;3.65;1.20;;;30.60;91.30;;;;;;5013356;28;20109;-66
2023/12/23 03:11:16;;;;;;;4.55;1.17;;;30.70;92.00;;;;;;5011779;28;20689;-72
2023/12/23 03:13:43;;;;;;;3.78;1.20;;;31.30;92.20;;;;;;5012716;28;20026;-67
2023/12/23 03:16:19;;;;;;;2.70;1.30;;;32.20;91.50;;;;;;5013004;28;20034;-71
2023/12/23 03:18:46;;;;;;;2.95;1.30;;;32.60;90.70;;;;;;5013134;28;20033;-70
2023/12/23 03:21:14;;;;;;;5.38;1.23;;;32.30;91.20;;;;;;5012697;28;20084;-71
2023/12/23 03:23:41;;;;;;;1.50;0.88;;;32.80;91.00;;;;;;5012951;28;20022;-73
2023/12/23 03:26:08;;;;;;;2.35;1.63;;;33.30;92.20;;;;;;5013089;28;20057;-71
2023/12/23 03:28:35;;;;;;;2.00;1.05;;;33.80;90.20;;;;;;5012598;28;20515;-67
2023/12/23 03:31:02;;;;;;;2.40;1.02;;;33.70;89.50;;;;;;5016127;28;20038;-67
2023/12/23 03:33:29;;;;;;;3.80;1.45;;;33.50;90.50;;;;;;5013817;28;20084;-65
2023/12/23 03:35:59;;;;;;;4.85;3.35;;;33.30;90.90;;;;;;5013213;28;20029;-66
2023/12/23 03:38:26;;;;;;;2.92;1.60;;;33.40;90.50;;;;;;5012190;28;20065;-70
2023/12/23 03:40:53;;;;;;;3.55;1.45;;;32.50;90.80;;;;;;5014867;28;20033;-70
2023/12/23 03:43:20;;;;;;;3.10;1.45;;;31.20;91.80;;;;;;5016949;28;20117;-67
2023/12/23 03:45:48;;;;;;;4.05;2.22;;;30.90;92.40;;;;;;5011913;28;20068;-69
2023/12/23 03:48:15;;;;;;;5.32;1.80;;;31.20;92.50;;;;;;5020690;28;20040;-72
2023/12/23 03:50:42;;;;;;;2.25;1.45;;;32.10;92.70;;;;;;5017954;28;20311;-72
2023/12/23 03:53:09;;;;;;;4.35;1.20;;;32.80;92.10;;;;;;5011560;28;20054;-71
2023/12/23 03:55:38;;;;;;;4.63;1.70;;;32.70;91.40;;;;;;5012832;28;20018;-71
2023/12/23 03:58:05;;;;;;;3.83;1.30;;;31.90;91.30;;;;;;5008690;28;20029;-70
2023/12/23 04:00:32;;;;;;;6.20;2.05;;;31.00;92.40;;;;;;5014575;28;20029;-72
2023/12/23 04:03:00;;;;;;;5.15;1.60;;;30.30;92.90;;;;;;5011093;28;20584;-74
2023/12/23 04:05:27;;;;;;;7.80;4.47;;;29.80;93.30;;;;;;5012722;28;20115;-74
2023/12/23 04:07:54;;;;;;;3.50;1.30;;;30.10;93.20;;;;;;5016640;28;20059;-73
2023/12/23 04:10:21;;;;;;;5.20;1.27;;;30.40;92.90;;;;;;5020474;28;20037;-74
2023/12/23 04:12:48;;;;;;;3.47;1.10;;;31.20;92.60;;;;;;5016318;28;20079;-74
2023/12/23 04:15:15;;;;;;;3.10;1.20;;;31.40;92.20;;;;;;5019863;28;20365;-74
2023/12/23 04:17:42;;;;;;;3.35;1.08;;;31.40;91.70;;;;;;5024421;28;20032;-70
2023/12/23 04:20:10;;;;;;;2.22;0.90;;;30.70;92.40;;;;;;5018300;28;20065;-69
2023/12/23 04:22:37;;;;;;;2.25;1.23;;;30.80;92.20;;;;;;5020646;28;20152;-72
2023/12/23 04:25:05;;;;;;;3.38;1.33;;;30.60;92.60;;;;;;5024668;28;20380;-73
2023/12/23 04:27:32;;;;;;;2.17;0.80;;;30.90;92.50;;;;;;5019578;28;20022;-75
2023/12/23 04:29:59;;;;;;;2.38;1.30;;;31.40;92.00;;;;;;5022770;28;20065;-69
2023/12/23 04:32:26;;;;;;;2.65;0.90;;;31.30;92.20;;;;;;5017378;28;20026;-74
2023/12/23 04:34:55;;;;;;;2.60;1.15;;;31.70;92.60;;;;;;5012999;28;20084;-70
2023/12/23 04:37:22;;;;;;;4.53;1.10;;;32.20;91.20;;;;;;5020561;28;20495;-70
2023/12/23 04:39:49;;;;;;;3.15;1.00;;;32.80;91.40;;;;;;5019928;28;20029;-69
2023/12/23 04:42:16;;;;;;;2.53;0.98;;;32.40;91.00;;;;;;5017264;28;20110;-67
2023/12/23 04:44:43;;;;;;;4.70;1.20;;;31.10;92.10;;;;;;5017228;28;20426;-69
2023/12/23 04:47:11;;;;;;;3.50;1.35;;;30.20;92.40;;;;;;5024918;28;20510;-69
2023/12/23 04:49:39;;;;;;;4.22;1.13;;;29.10;93.10;;;;;;5021109;28;20030;-70
2023/12/23 04:52:06;;;;;;;3.75;1.27;;;29.10;93.60;;;;;;5020997;28;20033;-71
2023/12/23 04:54:33;;;;;;;5.45;1.38;;;29.60;93.30;;;;;;5021956;28;20028;-71
2023/12/23 04:57:00;;;;;;;4.53;2.58;;;29.60;93.40;;;;;;5012009;28;20022;-70
2023/12/23 04:59:27;;;;;;;9.52;6.05;;;30.20;92.50;;;;;;5015681;28;20097;-69
2023/12/23 05:01:54;;;;;;;3.15;1.58;;;30.20;92.50;;;;;;5017399;28;20029;-66
2023/12/23 05:04:22;;;;;;;5.70;4.00;;;30.00;93.50;;;;;;5017782;28;20069;-68
2023/12/23 05:06:49;;;;;;;5.80;3.85;;;29.60;93.20;;;;;;5018532;28;20025;-69
2023/12/23 05:09:16;;;;;;;2.97;1.58;;;29.70;93.70;;;;;;5020290;28;20483;-69
2023/12/23 05:11:43;;;;;;;3.90;1.25;;;29.60;93.30;;;;;;5014740;28;20029;-68
2023/12/23 05:14:10;;;;;;;10.20;4.95;;;29.60;93.40;;;;;;5008508;28;20699;-70
2023/12/23 05:16:37;;;;;;;4.63;1.75;;;30.00;93.70;;;;;;5013969;28;20025;-69
2023/12/23 05:19:04;;;;;;;5.07;1.52;;;29.90;93.40;;;;;;5013559;28;20092;-70
2023/12/23 05:21:31;;;;;;;11.73;3.03;;;29.80;93.30;;;;;;5012965;28;20431;-69
2023/12/23 05:23:58;;;;;;;2.90;1.63;;;29.70;93.60;;;;;;5012514;28;20022;-69
2023/12/23 05:26:25;;;;;;;2.08;0.85;;;29.80;93.20;;;;;;5012241;28;20501;-72
2023/12/23 05:28:53;;;;;;;4.88;1.30;;;29.20;93.70;;;;;;5012986;28;20033;-68
2023/12/23 05:31:20;;;;;;;3.47;1.35;;;29.20;94.20;;;;;;5013422;28;20527;-72
2023/12/23 05:33:51;;;;;;;3.75;1.40;;;29.00;94.50;;;;;;5012993;28;20392;-75
2023/12/23 05:36:18;;;;;;;4.57;1.90;;;29.10;94.80;;;;;;5013165;28;20026;-70
2023/12/23 05:38:45;;;;;;;4.57;1.77;;;29.00;94.50;;;;;;5013368;28;20029;-70
2023/12/23 05:41:12;;;;;;;3.13;1.17;;;29.00;94.60;;;;;;5014263;28;20099;-70
2023/12/23 05:43:39;;;;;;;4.38;1.90;;;28.70;94.70;;;;;;5013091;28;20026;-68
2023/12/23 05:46:06;;;;;;;5.53;1.33;;;28.60;95.00;;;;;;5014358;28;20056;-71
2023/12/23 05:48:33;;;;;;;4.80;1.13;;;28.10;95.20;;;;;;5013056;28;20349;-70
2023/12/23 05:51:00;;;;;;;3.45;1.30;;;27.50;95.70;;;;;;5014551;28;20132;-68
2023/12/23 05:53:27;;;;;;;5.05;1.40;;;27.30;96.40;;;;;;5014869;28;20444;-69
2023/12/23 05:55:54;;;;;;;3.25;1.42;;;27.20;96.50;;;;;;5015083;28;20472;-69
2023/12/23 05:58:21;;;;;;;5.97;1.55;;;27.10;96.10;;;;;;5017741;28;20028;-69
2023/12/23 06:00:49;;;;;;;5.90;1.90;;;27.00;96.40;;;;;;5013468;28;20108;-69
2023/12/23 06:03:17;;;;;;;5.43;1.55;;;27.10;96.60;;;;;;5014202;28;20045;-70
2023/12/23 06:05:44;;;;;;;7.22;1.98;;;27.80;96.20;;;;;;5010805;28;20097;-74
2023/12/23 06:08:11;;;;;;;5.97;1.90;;;28.90;95.60;;;;;;5014157;28;20032;-69
2023/12/23 06:10:38;;;;;;;3.85;1.58;;;29.00;94.50;;;;;;5014648;28;20079;-71
2023/12/23 06:13:06;;;;;;;3.55;2.35;;;29.20;94.40;;;;;;5017530;28;20030;-68
2023/12/23 06:15:33;;;;;;;4.40;0.95;;;28.90;94.70;;;;;;5021002;28;20215;-68
2023/12/23 06:18:00;;;;;;;4.28;2.97;;;28.30;94.70;;;;;;5013788;28;20021;-69
2023/12/23 06:20:27;;;;;;;6.63;4.38;;;27.90;95.60;;;;;;5016784;28;20034;-67
2023/12/23 06:22:56;;;;;;;5.10;2.53;;;27.60;96.40;;;;;;5020699;28;20128;-69
2023/12/23 06:25:23;;;;;;;3.88;1.52;;;27.50;96.20;;;;;;5019084;28;20083;-71
2023/12/23 06:27:50;;;;;;;4.50;1.40;;;27.40;96.20;;;;;;5022939;28;20176;-69
2023/12/23 06:30:18;;;;;;;5.25;3.22;;;27.20;96.40;;;;;;5022592;28;20025;-71
2023/12/23 06:32:45;;;;;;;5.18;3.03;;;27.00;96.70;;;;;;5015979;28;20158;-69
2023/12/23 06:35:12;;;;;;;5.57;1.33;;;27.00;97.00;;;;;;5021802;28;20033;-68
2023/12/23 06:37:39;;;;;;;3.92;2.15;;;27.00;96.80;;;;;;5024366;28;20037;-72
2023/12/23 06:40:06;;;;;;;5.20;1.48;;;27.00;97.30;;;;;;5016883;28;20030;-71
2023/12/23 06:42:34;;;;;;;3.45;1.50;;;27.00;96.60;;;;;;5015165;28;20432;-71
2023/12/23 06:45:01;;;;;;;3.97;1.30;;;26.90;97.00;;;;;;5016141;28;20029;-70
2023/12/23 06:47:28;;;;;;;3.03;1.27;;;26.80;96.80;;;;;;5012388;28;20122;-72
2023/12/23 06:49:55;;;;;;;3.05;1.50;;;26.60;97.00;;;;;;5011088;28;20113;-72
2023/12/23 06:52:22;;;;;;;3.72;1.52;;;26.60;97.70;;;;;;5015531;28;20033;-72
2023/12/23 06:54:49;;;;;;;1.98;1.05;;;26.60;97.60;;;;;;5013005;28;20038;-69
2023/12/23 06:57:16;;;;;;;3.75;1.20;;;26.70;97.40;;;;;;5014116;28;20114;-73
2023/12/23 06:59:46;;;;;;;2.33;1.17;;;26.70;97.50;;;;;;5017522;28;20221;-74
2023/12/23 07:02:13;;;;;;;2.85;0.90;;;26.60;97.80;;;;;;5013017;28;20108;-74
2023/12/23 07:04:41;;;;;;;5.65;1.60;;;26.50;97.60;;;;;;5012094;28;20029;-68
2023/12/23 07:07:10;;;;;;;4.10;1.77;;;26.30;97.80;;;;;;5017768;28;20052;-68
2023/12/23 07:09:37;;;;;;;6.82;1.60;;;26.10;98.30;;;;;;5011681;28;20407;-68
2023/12/23 07:12:05;;;;;;;5.78;1.13;;;25.90;99.20;;;;;;5014519;28;20400;-72
2023/12/23 07:14:32;;;;;;;4.72;1.08;;;25.80;99.10;;;;;;5012090;28;20753;-68
2023/12/23 07:16:59;;;;;;;2.55;1.20;;;25.70;99.20;;;;;;5012560;28;20358;-72
2023/12/23 07:19:26;;;;;;;8.50;1.92;;;25.60;99.50;;;;;;5017617;28;20030;-68
2023/12/23 07:21:53;;;;;;;8.88;2.63;;;25.50;99.50;;;;;;5015321;28;20045;-68
2023/12/23 07:24:21;;;;;;;3.58;1.42;;;25.30;99.90;;;;;;5010701;28;20030;-72
2023/12/23 07:26:48;;;;;;;3.88;1.40;;;25.30;99.90;;;;;;5007337;28;20354;-69
2023/12/23 07:29:16;;;;;;;4.55;1.70;;;25.20;99.90;;;;;;5019221;28;20036;-74
2023/12/23 07:31:43;;;;;;;3.25;1.20;;;25.30;99.90;;;;;;5009277;28;20061;-72
2023/12/23 07:34:10;;;;;;;5.05;1.35;;;25.20;99.90;;;;;;5018135;28;20131;-69
2023/12/23 07:36:37;;;;;;;6.43;1.48;;;25.10;99.90;;;;;;5036898;28;20030;-72
2023/12/23 07:39:05;;;;;;;3.00;1.20;;;25.10;99.90;;;;;;5014231;28;20040;-73
2023/12/23 07:41:32;;;;;;;3.58;1.17;;;25.00;99.90;;;;;;5016933;28;20018;-69
2023/12/23 07:43:59;;;;;;;7.20;1.83;;;25.00;99.90;;;;;;5018977;28;20029;-69
2023/12/23 07:46:26;;;;;;;3.10;1.13;;;25.00;99.90;;;;;;5027399;28;20026;-69
2023/12/23 07:48:53;;;;;;;1.40;0.77;;;25.00;99.90;;;;;;5016893;28;20404;-69
2023/12/23 07:51:21;;;;;;;5.85;1.05;;;25.00;99.90;;;;;;5020195;28;20087;-69
2023/12/23 07:53:48;;;;;;;4.43;1.30;;;24.90;99.90;;;;;;5011694;28;20033;-72
2023/12/23 07:56:15;;;;;;;1.88;0.95;;;24.80;99.90;;;;;;5019654;28;20082;-69
2023/12/23 07:58:42;;;;;;;2.95;0.82;;;24.60;99.90;;;;;;5024025;28;20115;-69
2023/12/23 08:01:09;;;;;;;4.20;0.90;;;24.40;99.90;;;;;;5019059;28;20178;-66
2023/12/23 08:03:37;;;;;;;1.75;0.93;;;24.40;99.90;;;;;;5021219;28;20503;-67
2023/12/23 08:06:05;;;;;;;4.55;1.30;;;24.50;99.90;;;;;;5020347;28;20140;-72
2023/12/23 08:08:32;;;;;;;3.78;0.90;;;24.30;99.90;;;;;;5018293;28;20029;-69
2023/12/23 08:11:00;;;;;;;4.90;1.00;;;24.30;99.90;;;;;;5020040;28;20025;-72
2023/12/23 08:13:31;;;;;;;2.78;0.77;;;24.30;99.90;;;;;;5018711;28;20017;-69
2023/12/23 08:15:58;;;;;;;3.03;0.93;;;24.20;99.90;;;;;;5022137;28;20067;-72
2023/12/23 08:18:25;;;;;;;3.40;1.23;;;24.20;99.90;;;;;;5023534;28;20040;-72
2023/12/23 08:20:52;;;;;;;3.97;1.00;;;24.00;99.90;;;;;;5018839;28;20662;-67
2023/12/23 08:23:19;;;;;;;4.00;1.38;;;23.90;99.90;;;;;;5024852;28;20027;-73
2023/12/23 08:25:47;;;;;;;2.25;0.60;;;23.80;99.90;;;;;;5021805;28;20108;-69
2023/12/23 08:28:14;;;;;;;2.40;0.88;;;23.70;99.90;;;;;;5025812;28;20064;-74
2023/12/23 08:30:41;;;;;;;4.05;1.00;;;23.70;99.90;;;;;;5015040;28;20032;-75
2023/12/23 08:33:08;;;;;;;4.30;1.00;;;23.60;99.90;;;;;;5012998;28;20113;-74
2023/12/23 08:35:36;;;;;;;5.97;1.10;;;23.60;99.90;;;;;;5014514;28;20033;-74
2023/12/23 08:38:04;;;;;;;5.18;1.30;;;23.60;99.90;;;;;;5018196;28;20041;-72
2023/12/23 08:40:31;;;;;;;2.33;0.90;;;23.60;99.90;;;;;;5008776;28;20029;-73
2023/12/23 08:42:58;;;;;;;2.25;0.93;;;23.60;99.90;;;;;;5016936;28;20033;-69
2023/12/23 08:45:25;;;;;;;3.35;1.02;;;23.50;99.90;;;;;;5010095;28;20488;-71
2023/12/23 08:47:52;;;;;;;4.43;1.23;;;23.50;99.90;;;;;;5014571;28;20107;-71
2023/12/23 08:50:20;;;;;;;5.30;1.20;;;23.40;99.90;;;;;;5010504;28;20030;-72
2023/12/23 08:52:47;;;;;;;3.95;0.95;;;23.30;99.90;;;;;;5017246;28;20502;-70
2023/12/23 08:55:15;;;;;;;2.30;0.80;;;23.30;99.90;;;;;;5017022;28;20044;-69
2023/12/23 08:57:42;;;;;;;3.42;1.05;;;23.10;99.90;;;;;;5016637;28;20431;-74
2023/12/23 09:00:09;;;;;;;2.85;1.08;;;23.10;99.90;;;;;;5011368;28;20532;-70
2023/12/23 09:02:36;;;;;;;1.77;0.80;;;23.10;99.90;;;;;;5020345;28;20595;-67
2023/12/23 09:05:04;;;;;;;6.75;1.38;;;23.10;99.90;;;;;;5016738;28;20301;-69
2023/12/23 09:07:31;;;;;;;5.45;1.30;;;22.90;99.90;;;;;;5023348;28;20101;-70
2023/12/23 09:09:58;;;;;;;3.92;1.40;;;23.00;99.90;;;;;;5022727;28;20118;-72
2023/12/23 09:12:25;;;;;;;3.17;1.10;;;22.90;99.90;;;;;;5017010;28;20033;-71
2023/12/23 09:14:53;;;;;;;5.28;1.13;;;22.90;99.90;;;;;;5017721;28;20026;-72
2023/12/23 09:17:20;;;;;;;3.33;1.75;;;22.90;99.90;;;;;;5019380;28;20033;-73
2023/12/23 09:19:47;;;;;;;4.85;1.30;;;22.90;99.90;;;;;;5013775;28;20052;-70
2023/12/23 09:22:14;;;;;;;5.78;1.98;;;22.70;99.90;;;;;;5016920;28;20472;-69
2023/12/23 09:24:43;;;;;;;4.95;1.77;;;22.80;99.90;;;;;;5018901;28;20032;-67
2023/12/23 09:27:10;;;;;;;3.70;1.23;;;22.70;99.90;;;;;;5016019;28;20447;-71
2023/12/23 09:29:37;;;;;;;3.15;1.30;;;22.80;99.90;;;;;;5013478;28;20052;-68
2023/12/23 09:32:05;;;;;;;4.03;1.23;;;22.80;99.90;;;;;;5016389;28;20030;-67
2023/12/23 09:34:32;;;;;;;4.95;1.40;;;22.70;99.90;;;;;;5044814;22;20063;-73
2023/12/23 09:37:00;;;;;;;7.63;1.50;;;22.70;99.90;;;;;;5043319;28;20087;-70
2023/12/23 09:39:28;;;;;;;3.28;1.55;;;22.60;99.90;;;;;;5041076;28;20426;-69
2023/12/23 09:41:55;;;;;;;5.57;1.45;;;22.60;99.90;;;;;;5041172;28;20032;-71
2023/12/23 09:44:23;;;;;;;3.60;1.25;;;22.60;99.90;;;;;;5043839;28;20405;-71
2023/12/23 09:46:50;;;;;;;3.67;1.63;;;22.60;99.90;;;;;;5026758;28;20028;-72
2023/12/23 09:49:17;;;;;;;4.15;1.55;;;22.60;99.90;;;;;;5040631;28;20028;-69
2023/12/23 09:51:45;;;;;;;4.05;1.20;;;22.50;99.90;;;;;;5042523;28;20033;-70
2023/12/23 09:54:16;;;;;;;5.55;1.42;;;22.50;99.90;;;;;;5044238;28;20049;-68
2023/12/23 09:56:43;;;;;;;4.43;1.42;;;22.40;99.90;;;;;;5043706;28;20021;-74
2023/12/23 09:59:11;;;;;;;3.75;1.30;;;22.30;99.90;;;;;;5044657;28;20017;-68
2023/12/23 10:01:38;;;;;;;5.88;1.50;;;22.40;99.90;;;;;;5040422;28;20055;-68
2023/12/23 10:04:05;;;;;;;3.63;1.20;;;22.30;99.90;;;;;;5044500;28;20029;-68
2023/12/23 10:06:32;;;;;;;5.90;1.77;;;22.20;99.90;;;;;;5021998;28;20025;-69
2023/12/23 10:08:59;;;;;;;3.05;1.40;;;22.20;99.90;;;;;;5039621;28;20383;-68
2023/12/23 10:11:26;;;;;;;4.85;1.17;;;22.30;99.90;;;;;;5043234;28;20329;-69
2023/12/23 10:13:53;;;;;;;7.03;1.50;;;22.30;99.90;;;;;;5044095;28;20028;-69
2023/12/23 10:16:20;;;;;;;3.60;1.55;;;22.30;99.90;;;;;;5043625;28;20025;-68
2023/12/23 10:18:48;;;;;;;5.20;1.42;;;22.20;99.90;;;;;;5043500;28;20441;-71
2023/12/23 10:21:15;;;;;;;3.92;1.98;;;22.20;99.90;;;;;;5043085;28;20136;-70
2023/12/23 10:23:42;;;;;;;5.10;1.45;;;22.20;99.90;;;;;;5044082;28;20033;-70
2023/12/23 10:26:09;;;;;;;5.97;1.80;;;22.20;99.90;;;;;;5042728;28;20530;-70
2023/12/23 10:28:38;;;;;;;6.15;1.90;;;22.20;99.90;;;;;;5043351;28;20048;-71
2023/12/23 10:31:09;;;;;;;3.67;0.93;;;22.20;99.90;;;;;;5042487;28;20025;-72
2023/12/23 10:33:39;;;;;;;5.15;1.70;;;22.10;99.90;;;;;;5042962;28;20044;-70
2023/12/23 10:36:07;;;;;;;6.03;1.95;;;22.00;99.90;;;;;;5033972;28;20029;-73
2023/12/23 10:38:35;;;;;;;5.68;1.80;;;22.00;99.90;;;;;;5038535;28;20162;-70
2023/12/23 10:41:34;;;;;;;4.60;1.42;;;22.10;99.90;;;;;;5044471;28;20059;-70
2023/12/23 10:44:02;;;;;;;4.55;1.73;;;22.10;99.90;;;;;;4968852;28;20192;-70
2023/12/23 10:46:29;;;;;;;3.33;1.10;;;22.10;99.90;;;;;;4973712;28;20409;-69
2023/12/23 10:48:57;;;;;;;3.38;1.02;;;22.10;99.90;;;;;;4966384;28;20574;-70
2023/12/23 10:51:25;;;;;;;4.55;1.05;;;22.00;99.90;;;;;;4964177;28;20045;-68
2023/12/23 10:53:57;;;;;;;4.20;1.10;;;22.10;99.90;;;;;;4970146;28;20508;-69
2023/12/23 10:56:27;;;;;;;7.25;1.25;;;22.10;99.90;;;;;;4970725;28;20042;-69
2023/12/23 10:58:55;;;;;;;2.55;1.10;;;22.00;99.90;;;;;;4971840;28;20039;-67
2023/12/23 11:01:26;;;;;;;2.60;1.10;;;21.90;99.90;;;;;;4969463;28;20508;-68
2023/12/23 11:03:55;;;;;;;3.58;1.38;;;21.80;99.90;;;;;;4971146;28;20034;-67
2023/12/23 11:06:23;;;;;;;1.58;1.00;;;22.00;99.90;;;;;;4965637;28;20046;-69
2023/12/23 11:08:51;;;;;;;2.42;1.30;;;21.90;99.90;;;;;;4965791;28;20038;-71
2023/12/23 11:11:19;;;;;;;5.20;1.33;;;22.00;99.90;;;;;;4974202;28;20033;-69
2023/12/23 11:13:46;;;;;;;5.47;3.00;;;21.90;99.90;;;;;;4974781;28;20030;-73
2023/12/23 11:16:17;;;;;;;4.00;1.65;;;21.90;99.90;;;;;;4972522;28;20041;-71
2023/12/23 11:18:44;;;;;;;4.40;1.10;;;21.90;99.90;;;;;;4970840;28;20057;-71
2023/12/23 11:21:18;;;;;;;3.65;1.00;;;21.90;99.90;;;;;;5012766;28;20068;-70
2023/12/23 11:23:46;;;;;;;6.20;1.17;;;21.90;99.90;;;;;;5048771;28;20430;-67
2023/12/23 11:26:41;;;;;;;2.58;0.90;;;21.80;99.90;;;;;;5051089;28;20021;-70
2023/12/23 11:29:14;;;;;;;4.15;1.52;;;21.80;99.90;;;;;;5052287;28;20416;-71
2023/12/23 11:31:41;;;;;;;4.43;1.10;;;21.60;99.90;;;;;;5046037;28;20037;-70
2023/12/23 11:34:17;;;;;;;4.70;1.17;;;21.70;99.90;;;;;;5057723;28;20029;-73
2023/12/23 11:36:45;;;;;;;3.30;1.20;;;21.70;99.90;;;;;;5049812;28;20390;-72
2023/12/23 11:39:16;;;;;;;2.38;1.02;;;21.60;99.90;;;;;;5050531;28;20036;-72
2023/12/23 11:41:45;;;;;;;3.30;1.08;;;21.80;99.90;;;;;;5052251;28;20029;-73
2023/12/23 11:44:13;;;;;;;5.97;1.48;;;21.90;99.90;;;;;;5047982;28;20568;-68
2023/12/23 11:46:41;;;;;;;3.05;1.10;;;21.80;99.90;;;;;;5056762;28;20033;-69
2023/12/23 11:49:12;;;;;;;4.50;1.20;;;21.80;99.90;;;;;;5051849;28;20029;-70
2023/12/23 11:51:40;;;;;;;5.45;1.17;;;21.80;99.90;;;;;;5026889;28;20025;-72
2023/12/23 11:54:08;;;;;;;3.65;1.25;;;21.70;99.90;;;;;;5051307;28;20025;-68
2023/12/23 11:56:35;;;;;;;2.97;1.10;;;21.70;99.90;;;;;;5051907;28;20017;-69
2023/12/23 11:59:03;;;;;;;2.50;0.90;;;21.60;99.90;;;;;;5049791;28;20399;-73
2023/12/23 12:01:33;;;;;;;6.97;1.27;;;21.50;99.90;;;;;;5045214;28;20491;-70
2023/12/23 12:04:00;;;;;;;3.92;1.35;;;21.50;99.90;;;;;;5051417;28;20463;-68
2023/12/23 12:06:28;;;;;;;3.92;1.10;;;21.50;99.90;;;;;;5052164;28;20056;-70
2023/12/23 12:08:55;;;;;;;3.63;1.08;;;21.60;99.90;;;;;;5051729;28;20021;-69
2023/12/23 12:11:25;;;;;;;3.92;1.30;;;21.60;99.90;;;;;;5051174;28;20070;-70
2023/12/23 12:13:55;;;;;;;6.35;1.30;;;21.60;99.90;;;;;;5050814;28;20082;-69
2023/12/23 12:16:22;;;;;;;5.43;1.10;;;21.60;99.90;;;;;;5051810;28;20028;-72
2023/12/23 12:18:49;;;;;;;5.38;1.60;;;21.50;99.90;;;;;;5054687;28;20036;-69
2023/12/23 12:21:17;;;;;;;5.88;1.13;;;21.40;99.90;;;;;;5051796;28;20496;-71
2023/12/23 12:23:44;;;;;;;6.43;1.15;;;21.40;99.90;;;;;;5052222;28;20016;-73
2023/12/23 12:26:11;;;;;;;5.32;1.15;;;21.20;99.90;;;;;;5053002;28;20108;-68
2023/12/23 12:28:39;;;;;;;5.88;1.50;;;21.20;99.90;;;;;;5052131;28;20036;-67
2023/12/23 12:31:14;;;;;;;3.45;1.00;;;21.10;99.90;;;;;;5049165;28;20037;-71
2023/12/23 12:33:43;;;;;;;4.60;1.15;;;21.00;99.90;;;;;;5050032;28;20033;-71
2023/12/23 12:36:15;;;;;;;2.55;0.93;;;21.20;99.90;;;;;;5045714;28;20554;-71
2023/12/23 12:38:43;;;;;;;3.42;1.20;;;21.20;99.90;;;;;;5052204;28;20060;-70
2023/12/23 12:41:12;;;;;;;5.53;1.55;;;21.10;99.90;;;;;;5048399;28;20035;-72
2023/12/23 12:43:43;;;;;;;4.25;1.25;;;21.00;99.90;;;;;;5048361;28;20371;-67
2023/12/23 12:46:16;;;;;;;2.33;0.93;;;21.00;99.90;;;;;;5053454;28;20020;-72
2023/12/23 12:48:46;;;;;;;3.97;1.02;;;20.90;99.90;;;;;;5047925;28;20384;-70